sensor_id;sensor_type;location;lat;lon;timestamp;pressure;altitude;pressure_sealevel;temperature;humidity
6216;BME280;3141;49.234;9.326;2024-02-21T00:00:02;100682.88;;;11.74;65.77
6216;BME280;3141;49.234;9.326;2024-02-21T00:00:44;100682.34;;;11.80;65.81
6216;BME280;3141;49.234;9.326;2024-02-21T00:01:27;100684.56;;;11.85;65.68
6216;BME280;3141;49.234;9.326;2024-02-21T00:02:09;100674.22;;;11.91;65.43
6216;BME280;3141;49.234;9.326;2024-02-21T00:02:51;100674.22;;;11.91;65.37
6216;BME280;3141;49.234;9.326;2024-02-21T00:03:34;100681.50;;;11.80;65.61
6216;BME280;3141;49.234;9.326;2024-02-21T00:04:17;100680.91;;;11.86;65.63
6216;BME280;3141;49.234;9.326;2024-02-21T00:04:59;100678.97;;;11.78;65.75
6216;BME280;3141;49.234;9.326;2024-02-21T00:05:41;100679.13;;;11.77;65.38
6216;BME280;3141;49.234;9.326;2024-02-21T00:06:24;100675.31;;;11.60;66.26
6216;BME280;3141;49.234;9.326;2024-02-21T00:07:06;100677.25;;;11.58;66.21
6216;BME280;3141;49.234;9.326;2024-02-21T00:07:48;100666.41;;;11.71;66.11
6216;BME280;3141;49.234;9.326;2024-02-21T00:08:30;100667.09;;;11.63;66.40
6216;BME280;3141;49.234;9.326;2024-02-21T00:09:13;100666.00;;;11.66;66.09
6216;BME280;3141;49.234;9.326;2024-02-21T00:09:55;100666.41;;;11.71;66.12
6216;BME280;3141;49.234;9.326;2024-02-21T00:10:38;100665.00;;;11.67;65.57
6216;BME280;3141;49.234;9.326;2024-02-21T00:11:20;100662.59;;;11.44;66.49
6216;BME280;3141;49.234;9.326;2024-02-21T00:12:03;100656.06;;;11.48;66.55
6216;BME280;3141;49.234;9.326;2024-02-21T00:12:45;100657.59;;;11.60;66.21
6216;BME280;3141;49.234;9.326;2024-02-21T00:13:27;100657.59;;;11.60;66.18
6216;BME280;3141;49.234;9.326;2024-02-21T00:14:10;100658.00;;;11.46;66.53
6216;BME280;3141;49.234;9.326;2024-02-21T00:14:52;100655.91;;;11.50;66.51
6216;BME280;3141;49.234;9.326;2024-02-21T00:15:34;100656.34;;;11.55;66.10
6216;BME280;3141;49.234;9.326;2024-02-21T00:16:17;100650.50;;;11.42;66.20
6216;BME280;3141;49.234;9.326;2024-02-21T00:16:59;100652.72;;;11.46;66.53
6216;BME280;3141;49.234;9.326;2024-02-21T00:17:43;100660.22;;;11.41;66.94
6216;BME280;3141;49.234;9.326;2024-02-21T00:18:25;100659.25;;;11.42;66.42
6216;BME280;3141;49.234;9.326;2024-02-21T00:19:08;100653.84;;;11.44;66.81
6216;BME280;3141;49.234;9.326;2024-02-21T00:19:50;100645.16;;;11.32;66.81
6216;BME280;3141;49.234;9.326;2024-02-21T00:20:32;100646.44;;;11.28;67.22
6216;BME280;3141;49.234;9.326;2024-02-21T00:21:15;100643.78;;;11.28;67.36
6216;BME280;3141;49.234;9.326;2024-02-21T00:22:00;100639.47;;;11.46;66.37
6216;BME280;3141;49.234;9.326;2024-02-21T00:22:42;100645.34;;;11.59;66.02
6216;BME280;3141;49.234;9.326;2024-02-21T00:23:24;100642.72;;;11.69;65.19
6216;BME280;3141;49.234;9.326;2024-02-21T00:24:07;100640.50;;;11.65;65.61
6216;BME280;3141;49.234;9.326;2024-02-21T00:24:49;100636.41;;;11.60;65.77
6216;BME280;3141;49.234;9.326;2024-02-21T00:25:31;100633.78;;;11.70;65.40
6216;BME280;3141;49.234;9.326;2024-02-21T00:26:14;100632.66;;;11.63;65.45
6216;BME280;3141;49.234;9.326;2024-02-21T00:26:56;100629.06;;;11.74;65.12
6216;BME280;3141;49.234;9.326;2024-02-21T00:27:38;100636.03;;;11.75;64.65
6216;BME280;3141;49.234;9.326;2024-02-21T00:28:21;100632.84;;;11.71;65.08
6216;BME280;3141;49.234;9.326;2024-02-21T00:29:03;100637.66;;;11.56;65.16
6216;BME280;3141;49.234;9.326;2024-02-21T00:29:45;100628.03;;;11.46;65.30
6216;BME280;3141;49.234;9.326;2024-02-21T00:30:28;100636.97;;;11.45;65.76
6216;BME280;3141;49.234;9.326;2024-02-21T00:31:10;100634.06;;;11.57;65.78
6216;BME280;3141;49.234;9.326;2024-02-21T00:31:53;100627.91;;;11.57;65.39
6216;BME280;3141;49.234;9.326;2024-02-21T00:32:35;100619.69;;;11.41;65.86
6216;BME280;3141;49.234;9.326;2024-02-21T00:33:17;100629.88;;;11.55;65.44
6216;BME280;3141;49.234;9.326;2024-02-21T00:34:00;100619.53;;;11.61;65.21
6216;BME280;3141;49.234;9.326;2024-02-21T00:34:43;100620.69;;;11.69;65.18
6216;BME280;3141;49.234;9.326;2024-02-21T00:35:25;100620.81;;;11.86;64.47
6216;BME280;3141;49.234;9.326;2024-02-21T00:36:08;100620.97;;;11.85;64.59
6216;BME280;3141;49.234;9.326;2024-02-21T00:36:50;100614.41;;;11.89;64.26
6216;BME280;3141;49.234;9.326;2024-02-21T00:37:32;100616.22;;;11.79;64.67
6216;BME280;3141;49.234;9.326;2024-02-21T00:38:15;100623.72;;;11.54;65.13
6216;BME280;3141;49.234;9.326;2024-02-21T00:38:57;100611.38;;;11.65;64.99
6216;BME280;3141;49.234;9.326;2024-02-21T00:39:40;100612.88;;;11.57;65.17
6216;BME280;3141;49.234;9.326;2024-02-21T00:40:22;100614.28;;;11.81;64.27
6216;BME280;3141;49.234;9.326;2024-02-21T00:41:05;100614.28;;;11.71;64.27
6216;BME280;3141;49.234;9.326;2024-02-21T00:41:47;100617.22;;;11.78;64.51
6216;BME280;3141;49.234;9.326;2024-02-21T00:42:29;100620.16;;;11.75;64.96
6216;BME280;3141;49.234;9.326;2024-02-21T00:43:12;100617.50;;;11.75;64.66
6216;BME280;3141;49.234;9.326;2024-02-21T00:43:54;100612.91;;;11.77;64.57
6216;BME280;3141;49.234;9.326;2024-02-21T00:44:36;100612.91;;;11.77;64.75
6216;BME280;3141;49.234;9.326;2024-02-21T00:45:19;100612.03;;;11.86;64.39
6216;BME280;3141;49.234;9.326;2024-02-21T00:46:01;100616.09;;;11.71;64.71
6216;BME280;3141;49.234;9.326;2024-02-21T00:46:43;100611.78;;;11.70;64.67
6216;BME280;3141;49.234;9.326;2024-02-21T00:47:26;100613.56;;;11.59;65.06
6216;BME280;3141;49.234;9.326;2024-02-21T00:48:08;100607.00;;;11.63;65.39
6216;BME280;3141;49.234;9.326;2024-02-21T00:48:50;100609.97;;;11.80;64.58
6216;BME280;3141;49.234;9.326;2024-02-21T00:49:33;100613.72;;;11.87;64.41
6216;BME280;3141;49.234;9.326;2024-02-21T00:50:15;100611.50;;;11.73;64.73
6216;BME280;3141;49.234;9.326;2024-02-21T00:50:57;100620.66;;;11.49;65.31
6216;BME280;3141;49.234;9.326;2024-02-21T00:51:40;100611.47;;;11.53;65.50
6216;BME280;3141;49.234;9.326;2024-02-21T00:52:22;100607.84;;;11.54;65.42
6216;BME280;3141;49.234;9.326;2024-02-21T00:53:05;100610.38;;;11.66;65.39
6216;BME280;3141;49.234;9.326;2024-02-21T00:53:47;100611.09;;;11.68;65.34
6216;BME280;3141;49.234;9.326;2024-02-21T00:54:29;100610.09;;;11.69;65.11
6216;BME280;3141;49.234;9.326;2024-02-21T00:55:11;100610.63;;;11.62;65.03
6216;BME280;3141;49.234;9.326;2024-02-21T00:55:54;100615.91;;;11.53;65.42
6216;BME280;3141;49.234;9.326;2024-02-21T00:56:36;100615.91;;;11.53;65.76
6216;BME280;3141;49.234;9.326;2024-02-21T00:57:19;100605.19;;;11.45;66.16
6216;BME280;3141;49.234;9.326;2024-02-21T00:58:01;100609.38;;;11.47;66.14
6216;BME280;3141;49.234;9.326;2024-02-21T00:58:44;100602.69;;;11.43;65.99
6216;BME280;3141;49.234;9.326;2024-02-21T00:59:26;100607.84;;;11.54;65.96
6216;BME280;3141;49.234;9.326;2024-02-21T01:00:08;100602.69;;;11.43;66.31
6216;BME280;3141;49.234;9.326;2024-02-21T01:00:51;100604.06;;;11.28;66.71
6216;BME280;3141;49.234;9.326;2024-02-21T01:01:33;100600.31;;;11.31;66.82
6216;BME280;3141;49.234;9.326;2024-02-21T01:02:16;100598.06;;;11.36;66.71
6216;BME280;3141;49.234;9.326;2024-02-21T01:02:58;100605.47;;;11.42;66.78
6216;BME280;3141;49.234;9.326;2024-02-21T01:03:40;100604.50;;;11.52;65.88
6216;BME280;3141;49.234;9.326;2024-02-21T01:04:23;100602.28;;;11.38;65.90
6216;BME280;3141;49.234;9.326;2024-02-21T01:05:07;100598.34;;;11.42;65.96
6216;BME280;3141;49.234;9.326;2024-02-21T01:05:49;100591.53;;;11.21;66.78
6216;BME280;3141;49.234;9.326;2024-02-21T01:06:31;100599.59;;;11.29;67.39
6216;BME280;3141;49.234;9.326;2024-02-21T01:07:13;100605.47;;;11.42;66.76
6216;BME280;3141;49.234;9.326;2024-02-21T01:07:56;100593.50;;;11.57;66.34
6216;BME280;3141;49.234;9.326;2024-02-21T01:08:38;100601.16;;;11.50;66.34
6216;BME280;3141;49.234;9.326;2024-02-21T01:09:21;100598.50;;;11.31;66.94
6216;BME280;3141;49.234;9.326;2024-02-21T01:10:03;100595.00;;;11.31;67.14
6216;BME280;3141;49.234;9.326;2024-02-21T01:10:46;100587.06;;;11.31;67.01
6216;BME280;3141;49.234;9.326;2024-02-21T01:11:28;100584.41;;;11.31;66.67
6216;BME280;3141;49.234;9.326;2024-02-21T01:12:10;100592.22;;;11.32;67.09
6216;BME280;3141;49.234;9.326;2024-02-21T01:12:53;100592.22;;;11.23;67.22
6216;BME280;3141;49.234;9.326;2024-02-21T01:13:35;100587.34;;;11.37;67.06
6216;BME280;3141;49.234;9.326;2024-02-21T01:14:18;100584.56;;;11.48;66.21
6216;BME280;3141;49.234;9.326;2024-02-21T01:15:00;100586.81;;;11.43;66.35
6216;BME280;3141;49.234;9.326;2024-02-21T01:15:42;100587.63;;;11.34;67.09
6216;BME280;3141;49.234;9.326;2024-02-21T01:16:25;100578.72;;;11.35;66.82
6216;BME280;3141;49.234;9.326;2024-02-21T01:17:08;100583.28;;;11.24;67.33
6216;BME280;3141;49.234;9.326;2024-02-21T01:17:50;100585.81;;;11.25;67.01
6216;BME280;3141;49.234;9.326;2024-02-21T01:18:39;100586.22;;;11.30;66.98
6216;BME280;3141;49.234;9.326;2024-02-21T01:19:22;100577.47;;;11.30;67.05
6216;BME280;3141;49.234;9.326;2024-02-21T01:20:04;100575.38;;;11.33;66.80
6216;BME280;3141;49.234;9.326;2024-02-21T01:20:47;100580.13;;;11.30;67.18
6216;BME280;3141;49.234;9.326;2024-02-21T01:21:29;100569.09;;;11.34;66.88
6216;BME280;3141;49.234;9.326;2024-02-21T01:22:12;100571.06;;;11.23;66.93
6216;BME280;3141;49.234;9.326;2024-02-21T01:22:54;100564.91;;;11.41;66.58
6216;BME280;3141;49.234;9.326;2024-02-21T01:23:37;100569.38;;;11.50;66.39
6216;BME280;3141;49.234;9.326;2024-02-21T01:24:19;100571.47;;;11.47;65.97
6216;BME280;3141;49.234;9.326;2024-02-21T01:25:01;100566.31;;;11.45;66.08
6216;BME280;3141;49.234;9.326;2024-02-21T01:25:44;100561.03;;;11.45;66.01
6216;BME280;3141;49.234;9.326;2024-02-21T01:26:26;100568.56;;;11.40;65.95
6216;BME280;3141;49.234;9.326;2024-02-21T01:27:09;100563.38;;;11.39;66.46
6216;BME280;3141;49.234;9.326;2024-02-21T01:27:51;100565.75;;;11.42;66.33
6216;BME280;3141;49.234;9.326;2024-02-21T01:28:34;100561.72;;;11.47;65.92
6216;BME280;3141;49.234;9.326;2024-02-21T01:29:17;100562.81;;;11.54;65.91
6216;BME280;3141;49.234;9.326;2024-02-21T01:29:59;100557.41;;;11.66;65.17
6216;BME280;3141;49.234;9.326;2024-02-21T01:30:42;100560.31;;;11.62;64.98
6216;BME280;3141;49.234;9.326;2024-02-21T01:31:24;100559.06;;;11.57;65.16
6216;BME280;3141;49.234;9.326;2024-02-21T01:32:06;100560.44;;;11.51;65.18
6216;BME280;3141;49.234;9.326;2024-02-21T01:32:49;100557.09;;;11.49;65.59
6216;BME280;3141;49.234;9.326;2024-02-21T01:33:31;100554.06;;;11.54;65.65
6216;BME280;3141;49.234;9.326;2024-02-21T01:34:16;100545.69;;;11.49;65.77
6216;BME280;3141;49.234;9.326;2024-02-21T01:34:59;100552.78;;;11.29;66.07
6216;BME280;3141;49.234;9.326;2024-02-21T01:35:41;100550.16;;;11.29;66.40
6216;BME280;3141;49.234;9.326;2024-02-21T01:36:24;100548.59;;;11.46;65.54
6216;BME280;3141;49.234;9.326;2024-02-21T01:37:06;100556.28;;;11.49;65.68
6216;BME280;3141;49.234;9.326;2024-02-21T01:37:49;100547.50;;;11.29;66.11
6216;BME280;3141;49.234;9.326;2024-02-21T01:38:33;100547.06;;;11.34;66.27
6216;BME280;3141;49.234;9.326;2024-02-21T01:39:16;100549.59;;;11.35;66.11
6216;BME280;3141;49.234;9.326;2024-02-21T01:39:58;100547.91;;;11.34;66.39
6216;BME280;3141;49.234;9.326;2024-02-21T01:40:40;100548.03;;;11.42;66.07
6216;BME280;3141;49.234;9.326;2024-02-21T01:41:23;100547.50;;;11.48;65.80
6216;BME280;3141;49.234;9.326;2024-02-21T01:42:05;100542.63;;;11.34;66.11
6216;BME280;3141;49.234;9.326;2024-02-21T01:42:47;100545.97;;;11.55;65.55
6216;BME280;3141;49.234;9.326;2024-02-21T01:43:30;100545.66;;;11.58;65.23
6216;BME280;3141;49.234;9.326;2024-02-21T01:44:13;100541.22;;;11.59;65.49
6216;BME280;3141;49.234;9.326;2024-02-21T01:44:55;100551.66;;;11.51;65.53
6216;BME280;3141;49.234;9.326;2024-02-21T01:45:38;100548.75;;;11.54;65.56
6216;BME280;3141;49.234;9.326;2024-02-21T01:46:20;100545.81;;;11.57;65.44
6216;BME280;3141;49.234;9.326;2024-02-21T01:47:03;100545.66;;;11.58;65.22
6216;BME280;3141;49.234;9.326;2024-02-21T01:47:45;100547.78;;;11.74;65.06
6216;BME280;3141;49.234;9.326;2024-02-21T01:48:28;100546.25;;;11.72;64.74
6216;BME280;3141;49.234;9.326;2024-02-21T01:49:11;100539.28;;;11.80;64.80
6216;BME280;3141;49.234;9.326;2024-02-21T01:49:53;100540.41;;;11.68;65.13
6216;BME280;3141;49.234;9.326;2024-02-21T01:50:35;100542.91;;;11.70;65.38
6216;BME280;3141;49.234;9.326;2024-02-21T01:51:18;100535.53;;;11.73;65.23
6216;BME280;3141;49.234;9.326;2024-02-21T01:52:01;100539.81;;;11.55;65.48
6216;BME280;3141;49.234;9.326;2024-02-21T01:52:46;100528.56;;;11.43;66.30
6216;BME280;3141;49.234;9.326;2024-02-21T01:53:30;100536.22;;;11.46;66.24
6216;BME280;3141;49.234;9.326;2024-02-21T01:54:16;100533.41;;;11.48;66.50
6216;BME280;3141;49.234;9.326;2024-02-21T01:54:59;100525.91;;;11.43;66.43
6216;BME280;3141;49.234;9.326;2024-02-21T01:55:42;100531.91;;;11.65;66.11
6216;BME280;3141;49.234;9.326;2024-02-21T01:56:24;100532.16;;;11.61;66.36
6216;BME280;3141;49.234;9.326;2024-02-21T01:57:07;100531.75;;;11.47;67.12
6216;BME280;3141;49.234;9.326;2024-02-21T01:57:49;100525.91;;;11.24;68.24
6216;BME280;3141;49.234;9.326;2024-02-21T01:58:33;100525.50;;;11.38;67.86
6216;BME280;3141;49.234;9.326;2024-02-21T01:59:19;100523.13;;;11.35;68.13
6216;BME280;3141;49.234;9.326;2024-02-21T02:00:03;100526.03;;;11.32;67.90
6216;BME280;3141;49.234;9.326;2024-02-21T02:00:47;100521.72;;;11.22;68.51
6216;BME280;3141;49.234;9.326;2024-02-21T02:01:30;100520.88;;;11.31;68.45
6216;BME280;3141;49.234;9.326;2024-02-21T02:02:12;100522.28;;;11.44;68.44
6216;BME280;3141;49.234;9.326;2024-02-21T02:02:56;100527.16;;;11.49;68.63
6216;BME280;3141;49.234;9.326;2024-02-21T02:03:39;100529.81;;;11.49;68.29
6216;BME280;3141;49.234;9.326;2024-02-21T02:04:22;100519.50;;;11.36;69.09
6216;BME280;3141;49.234;9.326;2024-02-21T02:05:05;100515.59;;;11.31;69.24
6216;BME280;3141;49.234;9.326;2024-02-21T02:05:49;100528.41;;;11.26;69.80
6216;BME280;3141;49.234;9.326;2024-02-21T02:06:31;100524.66;;;11.28;69.76
6216;BME280;3141;49.234;9.326;2024-02-21T02:07:14;100516.16;;;11.34;69.84
6216;BME280;3141;49.234;9.326;2024-02-21T02:07:56;100523.13;;;11.35;70.11
6216;BME280;3141;49.234;9.326;2024-02-21T02:08:38;100523.81;;;11.37;70.10
6216;BME280;3141;49.234;9.326;2024-02-21T02:09:21;100526.31;;;11.29;70.51
6216;BME280;3141;49.234;9.326;2024-02-21T02:10:03;100520.59;;;11.15;71.19
6216;BME280;3141;49.234;9.326;2024-02-21T02:10:46;100532.16;;;11.23;71.29
6216;BME280;3141;49.234;9.326;2024-02-21T02:11:31;100528.69;;;11.23;71.04
6216;BME280;3141;49.234;9.326;2024-02-21T02:12:13;100529.81;;;11.20;71.52
6216;BME280;3141;49.234;9.326;2024-02-21T02:12:56;100530.38;;;11.14;71.40
6216;BME280;3141;49.234;9.326;2024-02-21T02:13:38;100527.00;;;11.03;71.95
6216;BME280;3141;49.234;9.326;2024-02-21T02:14:20;100525.75;;;11.07;72.23
6216;BME280;3141;49.234;9.326;2024-02-21T02:15:03;100531.63;;;11.29;71.66
6216;BME280;3141;49.234;9.326;2024-02-21T02:15:49;100531.31;;;11.13;72.52
6216;BME280;3141;49.234;9.326;2024-02-21T02:16:31;100533.84;;;11.24;72.40
6216;BME280;3141;49.234;9.326;2024-02-21T02:17:14;100523.53;;;11.31;72.23
6216;BME280;3141;49.234;9.326;2024-02-21T02:17:56;100534.28;;;11.29;72.65
6216;BME280;3141;49.234;9.326;2024-02-21T02:18:38;100535.13;;;11.30;72.25
6216;BME280;3141;49.234;9.326;2024-02-21T02:19:21;100530.63;;;11.30;72.92
6216;BME280;3141;49.234;9.326;2024-02-21T02:20:03;100532.31;;;11.22;72.82
6216;BME280;3141;49.234;9.326;2024-02-21T02:20:47;100528.00;;;11.21;72.90
6216;BME280;3141;49.234;9.326;2024-02-21T02:21:32;100539.81;;;11.17;72.96
6216;BME280;3141;49.234;9.326;2024-02-21T02:22:22;100530.78;;;11.19;73.52
6216;BME280;3141;49.234;9.326;2024-02-21T02:23:10;100538.00;;;11.27;72.99
6216;BME280;3141;49.234;9.326;2024-02-21T02:23:52;100537.59;;;11.22;73.20
6216;BME280;3141;49.234;9.326;2024-02-21T02:24:35;100540.97;;;11.33;73.00
6216;BME280;3141;49.234;9.326;2024-02-21T02:25:18;100530.38;;;11.24;73.40
6216;BME280;3141;49.234;9.326;2024-02-21T02:26:00;100536.09;;;11.19;73.24
6216;BME280;3141;49.234;9.326;2024-02-21T02:26:43;100534.53;;;11.17;73.63
6216;BME280;3141;49.234;9.326;2024-02-21T02:27:26;100537.88;;;11.19;73.76
6216;BME280;3141;49.234;9.326;2024-02-21T02:28:08;100528.16;;;11.19;73.97
6216;BME280;3141;49.234;9.326;2024-02-21T02:28:51;100524.09;;;11.25;73.81
6216;BME280;3141;49.234;9.326;2024-02-21T02:29:33;100530.66;;;11.21;74.26
6216;BME280;3141;49.234;9.326;2024-02-21T02:30:16;100526.44;;;11.18;73.93
6216;BME280;3141;49.234;9.326;2024-02-21T02:30:58;100522.56;;;11.22;73.94
6216;BME280;3141;49.234;9.326;2024-02-21T02:31:40;100522.84;;;11.19;74.82
6216;BME280;3141;49.234;9.326;2024-02-21T02:32:23;100519.22;;;11.20;74.77
6216;BME280;3141;49.234;9.326;2024-02-21T02:33:05;100518.41;;;11.20;74.90
6216;BME280;3141;49.234;9.326;2024-02-21T02:33:48;100518.50;;;11.18;74.87
6216;BME280;3141;49.234;9.326;2024-02-21T02:34:30;100512.66;;;11.05;74.13
6216;BME280;3141;49.234;9.326;2024-02-21T02:35:13;100515.75;;;11.01;75.13
6216;BME280;3141;49.234;9.326;2024-02-21T02:35:55;100509.19;;;10.95;75.21
6216;BME280;3141;49.234;9.326;2024-02-21T02:36:38;100504.72;;;11.05;75.17
6216;BME280;3141;49.234;9.326;2024-02-21T02:37:20;100503.06;;;11.14;74.79
6216;BME280;3141;49.234;9.326;2024-02-21T02:38:03;100497.63;;;11.15;75.05
6216;BME280;3141;49.234;9.326;2024-02-21T02:38:45;100503.06;;;11.14;74.77
6216;BME280;3141;49.234;9.326;2024-02-21T02:39:28;100494.97;;;11.15;75.17
6216;BME280;3141;49.234;9.326;2024-02-21T02:40:10;100498.63;;;11.14;74.87
6216;BME280;3141;49.234;9.326;2024-02-21T02:40:54;100494.84;;;11.17;75.18
6216;BME280;3141;49.234;9.326;2024-02-21T02:41:37;100496.94;;;11.23;74.84
6216;BME280;3141;49.234;9.326;2024-02-21T02:42:19;100489.56;;;11.07;74.90
6216;BME280;3141;49.234;9.326;2024-02-21T02:43:01;100492.50;;;11.04;75.07
6216;BME280;3141;49.234;9.326;2024-02-21T02:43:44;100495.13;;;11.04;75.06
6216;BME280;3141;49.234;9.326;2024-02-21T02:44:26;100486.19;;;10.86;75.38
6216;BME280;3141;49.234;9.326;2024-02-21T02:45:09;100484.69;;;10.93;75.91
6216;BME280;3141;49.234;9.326;2024-02-21T02:45:51;100493.88;;;10.99;76.02
6216;BME280;3141;49.234;9.326;2024-02-21T02:46:33;100486.47;;;10.93;75.69
6216;BME280;3141;49.234;9.326;2024-02-21T02:47:16;100484.69;;;10.93;75.68
6216;BME280;3141;49.234;9.326;2024-02-21T02:47:58;100489.69;;;10.96;76.04
6216;BME280;3141;49.234;9.326;2024-02-21T02:48:41;100491.94;;;11.01;75.34
6216;BME280;3141;49.234;9.326;2024-02-21T02:49:23;100487.72;;;10.79;76.33
6216;BME280;3141;49.234;9.326;2024-02-21T02:50:06;100478.38;;;10.75;76.27
6216;BME280;3141;49.234;9.326;2024-02-21T02:50:49;100488.41;;;10.91;76.01
6216;BME280;3141;49.234;9.326;2024-02-21T02:51:31;100484.25;;;10.88;76.09
6216;BME280;3141;49.234;9.326;2024-02-21T02:52:14;100489.53;;;10.88;75.99
6216;BME280;3141;49.234;9.326;2024-02-21T02:52:56;100482.00;;;10.84;75.66
6216;BME280;3141;49.234;9.326;2024-02-21T02:53:39;100481.03;;;10.94;75.70
6216;BME280;3141;49.234;9.326;2024-02-21T02:54:21;100479.81;;;10.98;75.61
6216;BME280;3141;49.234;9.326;2024-02-21T02:55:04;100482.47;;;11.08;75.07
6216;BME280;3141;49.234;9.326;2024-02-21T02:55:47;100480.34;;;11.11;75.27
6216;BME280;3141;49.234;9.326;2024-02-21T02:56:29;100474.25;;;11.11;75.00
6216;BME280;3141;49.234;9.326;2024-02-21T02:57:11;100481.34;;;11.10;75.38
6216;BME280;3141;49.234;9.326;2024-02-21T02:57:54;100481.34;;;11.20;75.11
6216;BME280;3141;49.234;9.326;2024-02-21T02:58:36;100482.75;;;11.14;74.90
6216;BME280;3141;49.234;9.326;2024-02-21T02:59:19;100480.63;;;11.08;75.25
6216;BME280;3141;49.234;9.326;2024-02-21T03:00:01;100476.75;;;11.12;75.18
6216;BME280;3141;49.234;9.326;2024-02-21T03:00:43;100477.84;;;11.10;75.05
6216;BME280;3141;49.234;9.326;2024-02-21T03:01:25;100478.56;;;11.21;74.84
6216;BME280;3141;49.234;9.326;2024-02-21T03:02:08;100465.75;;;11.07;75.26
6216;BME280;3141;49.234;9.326;2024-02-21T03:02:50;100475.50;;;10.97;75.66
6216;BME280;3141;49.234;9.326;2024-02-21T03:03:33;100473.81;;;10.96;76.05
6216;BME280;3141;49.234;9.326;2024-02-21T03:04:15;100460.84;;;11.03;75.98
6216;BME280;3141;49.234;9.326;2024-02-21T03:04:57;100470.47;;;10.94;76.09
6216;BME280;3141;49.234;9.326;2024-02-21T03:05:40;100469.09;;;11.09;75.27
6216;BME280;3141;49.234;9.326;2024-02-21T03:06:22;100467.41;;;11.08;75.96
6216;BME280;3141;49.234;9.326;2024-02-21T03:07:04;100460.28;;;11.18;75.38
6216;BME280;3141;49.234;9.326;2024-02-21T03:07:48;100462.94;;;11.18;75.40
6216;BME280;3141;49.234;9.326;2024-02-21T03:08:31;100459.88;;;11.13;75.36
6216;BME280;3141;49.234;9.326;2024-02-21T03:09:14;100458.50;;;10.90;76.61
6216;BME280;3141;49.234;9.326;2024-02-21T03:09:57;100454.34;;;10.97;76.43
6216;BME280;3141;49.234;9.326;2024-02-21T03:10:39;100453.19;;;11.00;76.18
6216;BME280;3141;49.234;9.326;2024-02-21T03:11:23;100451.53;;;10.89;75.94
6216;BME280;3141;49.234;9.326;2024-02-21T03:12:11;100452.66;;;10.96;75.99
6216;BME280;3141;49.234;9.326;2024-02-21T03:12:53;100453.78;;;10.94;75.96
6216;BME280;3141;49.234;9.326;2024-02-21T03:13:35;100455.44;;;10.95;75.93
6216;BME280;3141;49.234;9.326;2024-02-21T03:14:18;100440.41;;;10.95;76.22
6216;BME280;3141;49.234;9.326;2024-02-21T03:15:00;100442.78;;;11.08;75.72
6216;BME280;3141;49.234;9.326;2024-02-21T03:15:42;100445.00;;;11.12;75.94
6216;BME280;3141;49.234;9.326;2024-02-21T03:16:25;100439.81;;;11.20;75.83
6216;BME280;3141;49.234;9.326;2024-02-21T03:17:07;100433.97;;;11.17;76.20
6216;BME280;3141;49.234;9.326;2024-02-21T03:17:50;100435.38;;;11.02;75.89
6216;BME280;3141;49.234;9.326;2024-02-21T03:18:32;100439.56;;;11.04;75.94
6216;BME280;3141;49.234;9.326;2024-02-21T03:19:14;100443.03;;;11.05;76.11
6216;BME280;3141;49.234;9.326;2024-02-21T03:19:57;100435.25;;;11.13;75.53
6216;BME280;3141;49.234;9.326;2024-02-21T03:20:39;100438.16;;;11.19;75.27
6216;BME280;3141;49.234;9.326;2024-02-21T03:21:22;100431.47;;;11.15;75.66
6216;BME280;3141;49.234;9.326;2024-02-21T03:22:04;100435.25;;;11.13;75.64
6216;BME280;3141;49.234;9.326;2024-02-21T03:22:48;100426.72;;;11.19;76.04
6216;BME280;3141;49.234;9.326;2024-02-21T03:23:30;100429.81;;;11.14;76.39
6216;BME280;3141;49.234;9.326;2024-02-21T03:24:13;100431.47;;;11.15;75.89
6216;BME280;3141;49.234;9.326;2024-02-21T03:24:55;100438.84;;;11.21;75.29
6216;BME280;3141;49.234;9.326;2024-02-21T03:25:37;100436.63;;;11.26;74.63
6216;BME280;3141;49.234;9.326;2024-02-21T03:26:20;100436.22;;;11.21;74.80
6216;BME280;3141;49.234;9.326;2024-02-21T03:27:02;100432.31;;;11.16;74.40
6216;BME280;3141;49.234;9.326;2024-02-21T03:27:45;100437.31;;;11.00;74.87
6216;BME280;3141;49.234;9.326;2024-02-21T03:28:27;100437.75;;;11.14;74.87
6216;BME280;3141;49.234;9.326;2024-02-21T03:29:10;100430.50;;;11.16;75.22
6216;BME280;3141;49.234;9.326;2024-02-21T03:29:53;100440.66;;;11.21;75.29
6216;BME280;3141;49.234;9.326;2024-02-21T03:30:35;100435.38;;;11.21;75.16
6216;BME280;3141;49.234;9.326;2024-02-21T03:31:17;100433.56;;;11.21;74.75
6216;BME280;3141;49.234;9.326;2024-02-21T03:32:03;100435.38;;;11.21;75.04
6216;BME280;3141;49.234;9.326;2024-02-21T03:32:45;100436.88;;;11.23;75.00
6216;BME280;3141;49.234;9.326;2024-02-21T03:33:28;100434.22;;;11.23;74.87
6216;BME280;3141;49.234;9.326;2024-02-21T03:34:10;100434.94;;;11.25;74.79
6216;BME280;3141;49.234;9.326;2024-02-21T03:34:53;100439.53;;;11.23;75.51
6216;BME280;3141;49.234;9.326;2024-02-21T03:35:35;100444.81;;;11.23;75.09
6216;BME280;3141;49.234;9.326;2024-02-21T03:36:18;100446.22;;;11.27;75.31
6216;BME280;3141;49.234;9.326;2024-02-21T03:37:00;100444.56;;;11.26;74.98
6216;BME280;3141;49.234;9.326;2024-02-21T03:37:45;100444.56;;;11.26;74.84
6216;BME280;3141;49.234;9.326;2024-02-21T03:38:28;100439.28;;;11.26;74.54
6216;BME280;3141;49.234;9.326;2024-02-21T03:39:11;100442.06;;;11.25;74.31
6216;BME280;3141;49.234;9.326;2024-02-21T03:39:53;100436.03;;;11.32;74.44
6216;BME280;3141;49.234;9.326;2024-02-21T03:40:35;100438.28;;;11.27;74.96
6216;BME280;3141;49.234;9.326;2024-02-21T03:41:18;100427.84;;;11.26;74.91
6216;BME280;3141;49.234;9.326;2024-02-21T03:42:01;100424.78;;;11.21;75.62
6216;BME280;3141;49.234;9.326;2024-02-21T03:42:46;100419.22;;;11.05;76.64
6216;BME280;3141;49.234;9.326;2024-02-21T03:43:29;100425.34;;;11.05;76.24
6216;BME280;3141;49.234;9.326;2024-02-21T03:44:11;100425.06;;;11.08;76.06
6216;BME280;3141;49.234;9.326;2024-02-21T03:44:53;100425.63;;;11.12;76.03
6216;BME280;3141;49.234;9.326;2024-02-21T03:45:35;100424.25;;;10.98;76.45
6216;BME280;3141;49.234;9.326;2024-02-21T03:46:18;100419.53;;;10.92;76.72
6216;BME280;3141;49.234;9.326;2024-02-21T03:47:00;100412.56;;;10.91;76.69
6216;BME280;3141;49.234;9.326;2024-02-21T03:47:42;100414.25;;;10.92;76.67
6216;BME280;3141;49.234;9.326;2024-02-21T03:48:25;100402.81;;;10.92;76.03